| time (UTC) | temp F | wind direction | speed knots | gust knots | rain 1hr in | rain 24hr in | rain mn in | humidity % | barometer mb |
| 20260906114553 | 72 | 217 | 0.0 | 0.0 | 0.00 | 0.36 | 0.00 | 96 | 1010.8 |
| 20260906113049 | 71 | 216 | 0.0 | 0.0 | 0.00 | 0.36 | 0.00 | 96 | 1010.7 |
| 20260906111550 | 71 | 216 | 0.0 | 0.0 | 0.00 | 0.36 | 0.00 | 96 | 1010.5 |
| 20260906110048 | 71 | 217 | 0.0 | 0.0 | 0.00 | 0.36 | 0.00 | 96 | 1010.1 |
| 20260906104549 | 71 | 216 | 0.0 | 0.0 | 0.00 | 0.36 | 0.00 | 96 | 1010.1 |
| 20260906103048 | 72 | 216 | 0.0 | 0.0 | 0.00 | 0.36 | 0.00 | 96 | 1010.1 |
| 20260906101546 | 72 | 217 | 0.0 | 0.0 | 0.00 | 0.36 | 0.00 | 96 | 1010.1 |
| 20260906100043 | 72 | 216 | 0.0 | 0.0 | 0.00 | 0.36 | 0.00 | 96 | 1010.0 |
| 20260906094555 | 72 | 217 | 0.0 | 0.0 | 0.00 | 0.36 | 0.00 | 96 | 1009.8 |
| 20260906093048 | 72 | 217 | 0.0 | 0.0 | 0.00 | 0.36 | 0.00 | 96 | 1009.7 |
| 20260906091542 | 72 | 216 | 0.0 | 0.0 | 0.00 | 0.36 | 0.00 | 95 | 1009.9 |
| 20260906090051 | 72 | 217 | 0.0 | 0.0 | 0.00 | 0.36 | 0.00 | 95 | 1009.8 |
| 20260906084543 | 72 | 217 | 0.0 | 0.0 | 0.00 | 0.36 | 0.00 | 95 | 1009.9 |
| 20260906083046 | 72 | 216 | 0.0 | 0.0 | 0.00 | 0.36 | 0.00 | 95 | 1009.7 |
| 20260906081538 | 72 | 216 | 0.0 | 0.0 | 0.00 | 0.36 | 0.00 | 95 | 1009.4 |
| 20260906080045 | 72 | 217 | 0.0 | 0.0 | 0.00 | 0.36 | 0.00 | 95 | 1009.6 |
| 20260906074537 | 72 | 216 | 0.0 | 0.0 | 0.00 | 0.36 | 0.00 | 95 | 1009.6 |
| 20260906073035 | 72 | 217 | 0.0 | 0.0 | 0.00 | 0.36 | 0.00 | 95 | 1009.4 |
| 20260906071535 | 73 | 217 | 0.0 | 0.0 | 0.00 | 0.36 | 0.00 | 95 | 1009.4 |
| 20260906070033 | 73 | 216 | 0.0 | 0.0 | 0.00 | 0.36 | 0.00 | 95 | 1009.7 |
| 20260906064533 | 73 | 217 | 0.0 | 0.0 | 0.00 | 0.36 | 0.00 | 95 | 1009.9 |
| 20260906063028 | 73 | 217 | 0.0 | 0.0 | 0.00 | 0.36 | 0.00 | 95 | 1010.1 |
| 20260906061529 | 73 | 216 | 0.0 | 0.0 | 0.00 | 0.36 | 0.00 | 95 | 1010.3 |
| 20260906060026 | 73 | 217 | 0.0 | 0.0 | 0.00 | 0.36 | 0.00 | 95 | 1010.1 |
| 20260906054525 | 73 | 217 | 0.0 | 0.0 | 0.00 | 0.36 | 0.00 | 95 | 1010.0 |
| 20260906053024 | 73 | 217 | 0.0 | 0.0 | 0.00 | 0.36 | 0.00 | 95 | 1010.1 |
| 20260906051522 | 73 | 216 | 0.0 | 0.0 | 0.00 | 0.36 | 0.00 | 95 | 1010.1 |
| 20260906050021 | 73 | 216 | 0.0 | 0.0 | 0.00 | 0.36 | 0.00 | 95 | 1010.3 |
| 20260906044519 | 73 | 217 | 0.0 | 0.0 | 0.00 | 0.36 | 0.00 | 95 | 1010.3 |
| 20260906043027 | 73 | 217 | 0.0 | 0.0 | 0.00 | 0.36 | 0.00 | 95 | 1010.5 |
| 20260906041518 | 74 | 216 | 0.0 | 0.0 | 0.00 | 0.36 | 0.00 | 95 | 1010.3 |
| 20260906040013 | 74 | 217 | 0.0 | 0.0 | 0.00 | 0.36 | 0.00 | 95 | 1010.6 |
| 20260906034520 | 74 | 217 | 0.0 | 0.0 | 0.00 | 0.36 | 0.36 | 95 | 1010.7 |
| 20260906033012 | 74 | 217 | 0.0 | 0.0 | 0.00 | 0.36 | 0.36 | 94 | 1010.5 |
| 20260906031515 | 74 | 216 | 0.0 | 0.0 | 0.00 | 0.36 | 0.36 | 94 | 1010.6 |
| 20260906030011 | 74 | 217 | 0.0 | 0.0 | 0.00 | 0.36 | 0.36 | 94 | 1010.7 |
| 20260906024510 | 74 | 217 | 0.0 | 0.0 | 0.00 | 0.36 | 0.36 | 94 | 1010.6 |
| 20260906023009 | 75 | 216 | 0.0 | 0.0 | 0.00 | 0.36 | 0.36 | 94 | 1010.5 |
| 20260906021510 | 75 | 217 | 0.0 | 0.0 | 0.00 | 0.36 | 0.36 | 94 | 1010.0 |
| 20260906020009 | 75 | 216 | 0.0 | 0.0 | 0.00 | 0.36 | 0.36 | 93 | 1009.8 |
| 20260906014509 | 75 | 216 | 0.0 | 0.0 | 0.00 | 0.36 | 0.36 | 93 | 1009.7 |
| 20260906013008 | 76 | 217 | 0.0 | 0.0 | 0.00 | 0.36 | 0.36 | 93 | 1009.6 |
| 20260906011508 | 76 | 217 | 0.0 | 0.0 | 0.00 | 0.36 | 0.36 | 93 | 1009.5 |
| 20260906010007 | 77 | 216 | 0.0 | 0.0 | 0.00 | 0.36 | 0.36 | 93 | 1009.5 |
| 20260906004507 | 78 | 216 | 0.0 | 0.0 | 0.00 | 0.36 | 0.36 | 94 | 1009.5 |
| 20260906003006 | 78 | 216 | 0.0 | 0.0 | 0.00 | 0.36 | 0.36 | 94 | 1009.3 |
| 20260906001506 | 79 | 217 | 0.0 | 0.0 | 0.00 | 0.36 | 0.36 | 94 | 1009.3 |
| 20260906000006 | 79 | 216 | 0.0 | 0.0 | 0.00 | 0.36 | 0.36 | 94 | 1009.6 |
| 20260905234506 | 80 | 217 | 0.0 | 0.0 | 0.00 | 0.36 | 0.36 | 94 | 1009.4 |
| 20260905233004 | 80 | 217 | 0.0 | 0.0 | 0.00 | 0.36 | 0.36 | 94 | 1009.3 |
| 20260905231511 | 81 | 217 | 0.0 | 0.0 | 0.00 | 0.36 | 0.36 | 95 | 1009.3 |
| 20260905230004 | 81 | 217 | 0.0 | 0.0 | 0.00 | 0.36 | 0.36 | 95 | 1009.4 |
| 20260905224503 | 81 | 217 | 0.0 | 0.0 | 0.00 | 0.36 | 0.36 | 95 | 1009.3 |
| 20260905223004 | 80 | 217 | 0.0 | 0.0 | 0.00 | 0.36 | 0.36 | 95 | 1009.3 |
| 20260905221502 | 79 | 217 | 0.0 | 0.0 | 0.07 | 0.36 | 0.36 | 94 | 1009.2 |
| 20260905220100 | 78 | 217 | 0.0 | 0.0 | 0.36 | 0.36 | 0.36 | 93 | 1009.3 |
| 20260905220001 | 78 | 216 | 0.0 | 0.0 | 0.36 | 0.36 | 0.36 | 93 | 1009.3 |
| 20260905214600 | 78 | 217 | 0.0 | 0.0 | 0.36 | 0.36 | 0.36 | 92 | 1009.5 |
| 20260905213058 | 79 | 217 | 0.0 | 0.0 | 0.36 | 0.36 | 0.36 | 89 | 1009.5 |
| 20260905211606 | 83 | 215 | 0.0 | 8.7 | 0.28 | 0.28 | 0.28 | 78 | 1009.7 |
| 20260905210115 | 88 | 182 | 0.0 | 0.0 | 0.00 | 0.00 | 0.00 | 80 | 1009.9 |
| 20260905204559 | 90 | 184 | 0.0 | 0.0 | 0.00 | 0.00 | 0.00 | 72 | 1009.7 |
| 20260905203054 | 90 | 188 | 0.0 | 0.0 | 0.00 | 0.00 | 0.00 | 69 | 1009.8 |
| 20260905201552 | 89 | 188 | 0.0 | 0.0 | 0.00 | 0.00 | 0.00 | 71 | 1009.9 |
| 20260905200113 | 89 | 188 | 0.0 | 0.0 | 0.00 | 0.00 | 0.00 | 68 | 1009.9 |
| 20260905194552 | 90 | 67 | 0.0 | 0.0 | 0.00 | 0.00 | 0.00 | 68 | 1010.2 |
| 20260905193047 | 90 | 110 | 0.0 | 0.0 | 0.00 | 0.00 | 0.00 | 69 | 1010.3 |
| 20260905191544 | 90 | 32 | 0.0 | 0.9 | 0.00 | 0.00 | 0.00 | 74 | 1010.7 |
| 20260905190041 | 89 | 30 | 0.0 | 2.6 | 0.00 | 0.00 | 0.00 | 71 | 1011.0 |
| 20260905184549 | 89 | 47 | 1.7 | 7.0 | 0.00 | 0.00 | 0.00 | 71 | 1011.2 |
| 20260905183043 | 88 | 20 | 0.0 | 0.9 | 0.00 | 0.00 | 0.00 | 72 | 1011.2 |
| 20260905181544 | 88 | 80 | 0.0 | 0.0 | 0.00 | 0.00 | 0.00 | 69 | 1011.7 |
| 20260905180042 | 84 | 80 | 0.0 | 2.6 | 0.00 | 0.00 | 0.00 | 81 | 1011.9 |
| 20260905174537 | 81 | 107 | 0.0 | 3.5 | 0.00 | 0.00 | 0.00 | 79 | 1012.2 |
| 20260905173044 | 81 | 59 | 0.0 | 0.0 | 0.00 | 0.00 | 0.00 | 80 | 1012.2 |
| 20260905171538 | 82 | 59 | 0.0 | 0.0 | 0.00 | 0.00 | 0.00 | 77 | 1012.2 |
| 20260905170037 | 82 | 59 | 0.0 | 5.2 | 0.00 | 0.00 | 0.00 | 76 | 1012.3 |
| 20260905164533 | 81 | 53 | 0.9 | 7.8 | 0.00 | 0.00 | 0.00 | 76 | 1012.9 |
| 20260905163031 | 86 | 28 | 2.6 | 10.4 | 0.00 | 0.00 | 0.00 | 67 | 1013.2 |
| 20260905161529 | 88 | 49 | 0.0 | 2.6 | 0.00 | 0.00 | 0.00 | 74 | 1012.2 |
| 20260905160025 | 87 | 185 | 0.0 | 0.9 | 0.00 | 0.00 | 0.00 | 74 | 1011.9 |
| 20260905154522 | 86 | 126 | 0.0 | 4.3 | 0.00 | 0.00 | 0.00 | 77 | 1012.0 |
| 20260905153026 | 84 | 191 | 0.0 | 4.3 | 0.00 | 0.00 | 0.00 | 79 | 1012.0 |
| 20260905151514 | 83 | 191 | 0.9 | 5.2 | 0.00 | 0.00 | 0.00 | 80 | 1012.1 |
| 20260905150017 | 81 | 184 | 0.0 | 0.0 | 0.00 | 0.00 | 0.00 | 84 | 1012.3 |
| 20260905144512 | 79 | 158 | 0.0 | 0.0 | 0.00 | 0.00 | 0.00 | 88 | 1012.6 |
| 20260905143002 | 78 | 158 | 0.0 | 0.0 | 0.00 | 0.00 | 0.00 | 90 | 1012.6 |
| 20260905141559 | 77 | 157 | 0.0 | 0.0 | 0.00 | 0.00 | 0.00 | 93 | 1012.6 |
| 20260905140055 | 76 | 158 | 0.0 | 0.0 | 0.00 | 0.00 | 0.00 | 95 | 1012.6 |
| 20260905134551 | 74 | 157 | 0.0 | 0.0 | 0.00 | 0.00 | 0.00 | 95 | 1012.7 |
| 20260905133047 | 74 | 157 | 0.0 | 0.0 | 0.00 | 0.00 | 0.00 | 95 | 1012.8 |
| 20260905131555 | 73 | 157 | 0.0 | 0.0 | 0.00 | 0.00 | 0.00 | 95 | 1013.0 |
| 20260905130043 | 72 | 158 | 0.0 | 0.0 | 0.00 | 0.00 | 0.00 | 95 | 1013.2 |
| 20260905124542 | 72 | 157 | 0.0 | 0.0 | 0.00 | 0.00 | 0.00 | 96 | 1013.1 |
| 20260905123101 | 71 | 157 | 0.0 | 0.0 | 0.00 | 0.00 | 0.00 | 96 | 1013.1 |
| 20260905121536 | 71 | 157 | 0.0 | 0.0 | 0.00 | 0.00 | 0.00 | 95 | 1012.9 |
| 20260905120032 | 70 | 157 | 0.0 | 0.0 | 0.00 | 0.00 | 0.00 | 95 | 1012.7 |